createdAt,value
2023-04-15T00:00:28.050Z,70.7360
2023-04-15T00:01:28.607Z,69.6079
2023-04-15T00:02:29.258Z,70.0658
2023-04-15T00:03:30.087Z,70.1144
2023-04-15T00:04:30.983Z,70.4442
2023-04-15T00:05:31.538Z,69.4282
2023-04-15T00:06:32.100Z,68.5223
2023-04-15T00:07:32.637Z,69.1417
2023-04-15T00:08:33.198Z,69.1948
2023-04-15T00:09:34.308Z,68.8891
2023-04-15T00:10:34.833Z,69.0749
2023-04-15T00:11:35.366Z,69.4906
2023-04-15T00:12:36.064Z,69.0326
2023-04-15T00:13:36.569Z,69.9272
2023-04-15T00:14:37.147Z,69.7880
2023-04-15T00:15:37.714Z,69.5879
2023-04-15T00:16:38.318Z,69.9075
2023-04-15T00:17:38.905Z,70.2560
2023-04-15T00:18:39.466Z,70.6162
2023-04-15T00:19:40.294Z,70.1202
2023-04-15T00:20:40.814Z,69.9389
2023-04-15T00:21:41.333Z,70.0194
2023-04-15T00:22:41.891Z,70.4123
2023-04-15T00:23:42.446Z,70.9343
2023-04-15T00:24:43.256Z,73.3536
2023-04-15T00:25:43.851Z,73.5351
2023-04-15T00:26:44.375Z,72.7853
2023-04-15T00:27:44.945Z,72.2296
2023-04-15T00:28:45.514Z,72.5898
2023-04-15T00:29:46.311Z,72.9317
2023-04-15T00:30:46.944Z,72.1190
2023-04-15T00:31:47.471Z,71.8620
2023-04-15T00:32:48.086Z,71.8905
2023-04-15T00:33:48.624Z,73.0956
2023-04-15T00:34:49.156Z,73.3855
2023-04-15T00:35:49.681Z,72.9596
2023-04-15T00:36:50.248Z,72.8091
2023-04-15T00:37:50.806Z,72.7888
2023-04-15T00:38:51.388Z,71.9309
2023-04-15T00:39:52.012Z,71.8167
2023-04-15T00:40:52.558Z,71.9023
2023-04-15T00:41:53.129Z,72.0632
2023-04-15T00:42:53.666Z,71.8963
2023-04-15T00:43:54.212Z,72.1395
2023-04-15T00:44:54.781Z,71.6837
2023-04-15T00:45:55.440Z,71.6697
2023-04-15T00:46:56.315Z,71.3641
2023-04-15T00:47:56.934Z,70.8280
2023-04-15T00:48:57.836Z,70.4545
2023-04-15T00:49:58.406Z,70.4586
2023-04-15T00:50:58.973Z,70.1043
2023-04-15T00:51:59.728Z,70.2754
2023-04-15T00:53:00.313Z,69.8964
2023-04-15T00:54:00.850Z,69.8385
2023-04-15T00:55:01.445Z,69.7918
2023-04-15T00:56:02.011Z,70.1894
2023-04-15T00:57:02.667Z,70.5469
2023-04-15T00:59:06.310Z,70.5308
2023-04-15T01:00:06.921Z,70.4647
2023-04-15T01:01:09.115Z,69.7782
2023-04-15T01:02:09.749Z,69.6115
2023-04-15T01:07:13.785Z,69.8552
2023-04-15T01:10:53.283Z,69.5857
2023-04-15T01:11:47.022Z,69.8910
2023-04-15T01:12:47.577Z,70.1104
2023-04-15T01:13:48.294Z,70.4863
2023-04-15T01:14:48.382Z,70.6456
2023-04-15T01:15:49.021Z,70.4467
2023-04-15T01:16:49.829Z,70.5994
2023-04-15T01:17:50.414Z,70.3743
2023-04-15T01:18:50.947Z,71.1746
2023-04-15T01:19:51.501Z,71.6006
2023-04-15T01:20:52.034Z,72.0957
2023-04-15T01:21:52.697Z,72.1605
2023-04-15T01:22:53.180Z,72.3315
2023-04-15T01:23:53.734Z,72.2446
2023-04-15T01:24:54.473Z,72.1057
2023-04-15T01:25:55.019Z,72.1326
2023-04-15T01:26:55.604Z,72.0640
2023-04-15T01:28:10.865Z,72.0600
2023-04-15T01:28:57.291Z,72.2778
2023-04-15T01:29:57.891Z,72.4197
2023-04-15T01:30:58.391Z,70.9990
2023-04-15T01:31:59.052Z,71.2464
2023-04-15T01:32:59.640Z,72.0354
2023-04-15T01:34:00.207Z,72.2875
2023-04-15T01:35:00.717Z,72.3654
2023-04-15T01:36:01.249Z,72.1719
2023-04-15T01:37:01.881Z,72.1776
2023-04-15T01:38:02.461Z,72.1027
2023-04-15T01:39:03.099Z,72.0500
2023-04-15T01:40:03.727Z,72.0886
2023-04-15T01:41:04.301Z,72.2567
2023-04-15T01:42:04.827Z,72.2149
2023-04-15T01:43:05.398Z,72.6689
2023-04-15T01:44:05.929Z,73.0922
2023-04-15T01:45:06.468Z,73.0614
2023-04-15T01:46:06.998Z,73.0474
2023-04-15T01:47:07.546Z,73.5260
2023-04-15T01:48:08.138Z,73.0448
2023-04-15T01:49:08.937Z,73.1079
2023-04-15T01:50:09.462Z,72.5755
2023-04-15T01:51:10.043Z,73.2249
2023-04-15T01:52:10.583Z,73.2780
2023-04-15T01:53:11.154Z,73.7158
2023-04-15T01:54:12.300Z,74.8056
2023-04-15T01:55:12.858Z,74.9810
2023-04-15T01:56:15.283Z,74.8425
2023-04-15T01:57:15.104Z,75.4487
2023-04-15T01:58:15.592Z,75.5497
2023-04-15T01:59:16.326Z,75.2138
2023-04-15T02:00:16.844Z,75.0625
2023-04-15T02:01:17.431Z,74.6217
2023-04-15T02:02:17.987Z,74.8343
2023-04-15T02:03:18.640Z,74.3313
2023-04-15T02:04:20.768Z,74.2606
2023-04-15T02:05:24.807Z,74.0807
2023-04-15T02:06:25.359Z,74.1655
2023-04-15T02:07:25.884Z,74.2592
2023-04-15T02:08:26.420Z,74.0361
2023-04-15T02:09:26.965Z,74.0545
2023-04-15T02:10:27.539Z,74.2716
2023-04-15T02:11:28.301Z,74.5540
2023-04-15T02:12:28.809Z,74.9171
2023-04-15T02:13:29.356Z,74.6307
2023-04-15T02:14:29.858Z,74.6500
2023-04-15T02:15:30.381Z,74.6272
2023-04-15T02:16:30.983Z,74.6396
2023-04-15T02:17:31.526Z,74.9811
2023-04-15T02:18:32.032Z,74.8572
2023-04-15T02:19:32.556Z,74.2903
2023-04-15T02:20:33.089Z,74.6996
2023-04-15T02:21:34.258Z,75.1575
2023-04-15T02:22:34.877Z,74.9530
2023-04-15T02:23:35.438Z,75.0467
2023-04-15T02:24:35.931Z,74.8362
2023-04-15T02:25:36.453Z,74.8378
2023-04-15T02:26:37.013Z,74.9876
2023-04-15T02:27:37.546Z,75.1072
2023-04-15T02:28:38.077Z,74.7604
2023-04-15T02:29:38.665Z,75.1910
2023-04-15T02:30:39.195Z,75.5530
2023-04-15T02:31:40.015Z,75.1897
2023-04-15T02:32:40.594Z,74.8419
2023-04-15T02:33:41.105Z,74.8360
2023-04-15T02:34:41.660Z,74.7448
2023-04-15T02:35:42.233Z,74.8955
2023-04-15T02:36:42.807Z,75.1243
2023-04-15T02:37:43.434Z,74.2228
2023-04-15T02:38:44.055Z,73.4519
2023-04-15T02:39:44.582Z,73.5088
2023-04-15T02:40:45.142Z,73.3453
2023-04-15T02:41:45.977Z,73.1702
2023-04-15T02:42:46.581Z,73.1610
2023-04-15T02:43:47.112Z,73.5263
2023-04-15T02:44:47.680Z,73.7339
2023-04-15T02:45:48.398Z,74.2141
2023-04-15T02:46:49.094Z,74.4105
2023-04-15T02:47:49.707Z,74.5168
2023-04-15T02:48:50.485Z,74.5962
2023-04-15T02:49:51.002Z,74.9205
2023-04-15T02:50:52.048Z,74.9211
2023-04-15T02:51:52.857Z,74.8516
2023-04-15T02:52:53.385Z,75.2923
2023-04-15T02:53:53.973Z,75.4607
2023-04-15T02:54:54.530Z,75.4389
2023-04-15T02:55:55.065Z,75.4663
2023-04-15T02:56:55.814Z,75.5646
2023-04-15T02:57:56.365Z,75.6094
2023-04-15T02:58:56.960Z,75.8463
2023-04-15T02:59:57.454Z,75.6068
2023-04-15T03:00:57.998Z,74.8707
2023-04-15T03:01:58.549Z,75.5597
2023-04-15T03:02:59.215Z,75.5210
2023-04-15T03:03:59.904Z,75.6454
2023-04-15T03:05:00.425Z,75.1862
2023-04-15T03:06:00.943Z,75.3107
2023-04-15T03:07:01.487Z,75.4905
2023-04-15T03:08:02.032Z,75.3643
2023-04-15T03:09:02.731Z,75.3690
2023-04-15T03:10:03.324Z,75.5278
2023-04-15T03:11:03.895Z,75.8407
2023-04-15T03:12:04.421Z,75.9984
2023-04-15T03:13:04.986Z,76.2403
2023-04-15T03:14:05.547Z,76.4153
2023-04-15T03:15:06.083Z,76.6298
2023-04-15T03:16:06.718Z,76.5084
2023-04-15T03:17:07.275Z,76.2918
2023-04-15T03:18:07.928Z,75.9799
2023-04-15T03:19:08.484Z,76.0985
2023-04-15T03:20:09.061Z,75.7894
2023-04-15T03:21:09.563Z,75.7585
2023-04-15T03:22:10.122Z,75.6704
2023-04-15T03:23:10.650Z,75.8154
2023-04-15T03:24:11.219Z,75.7812
2023-04-15T03:25:11.748Z,75.5600
2023-04-15T03:26:12.300Z,75.4227
2023-04-15T03:27:12.804Z,75.1625
2023-04-15T03:28:13.345Z,74.7910
2023-04-15T03:29:15.424Z,74.9275
2023-04-15T03:30:15.935Z,74.8862
2023-04-15T03:31:16.828Z,74.5979
2023-04-15T03:32:17.339Z,74.6622
2023-04-15T03:33:17.890Z,74.5619
2023-04-15T03:34:18.442Z,74.9003
2023-04-15T03:35:19.012Z,75.1048
2023-04-15T03:36:19.541Z,75.1774
2023-04-15T03:37:20.054Z,74.8766
2023-04-15T03:38:20.621Z,74.9480
2023-04-15T03:39:21.174Z,74.5564
2023-04-15T03:40:21.706Z,74.6566
2023-04-15T03:41:22.500Z,74.8622
2023-04-15T03:42:23.003Z,75.0336
2023-04-15T03:43:23.574Z,75.1837
2023-04-15T03:44:24.129Z,74.7166
2023-04-15T03:45:24.690Z,75.0241
2023-04-15T03:46:25.487Z,74.8192
2023-04-15T03:47:25.991Z,74.9415
2023-04-15T03:48:26.516Z,75.1547
2023-04-15T03:49:27.076Z,75.4428
2023-04-15T03:50:27.593Z,75.5364
2023-04-15T03:51:28.135Z,75.3153
2023-04-15T03:52:28.697Z,75.7192
2023-04-15T03:53:29.288Z,75.5804
2023-04-15T03:54:29.833Z,75.8741
2023-04-15T03:55:30.361Z,76.1383
2023-04-15T03:56:31.126Z,76.2319
2023-04-15T03:57:31.692Z,76.2019
2023-04-15T03:58:32.282Z,76.5168
2023-04-15T03:59:32.850Z,76.5059
2023-04-15T04:00:33.401Z,76.6346
2023-04-15T04:01:34.021Z,76.7002
2023-04-15T04:02:34.612Z,76.5469
2023-04-15T04:03:35.357Z,76.7784
2023-04-15T04:04:36.056Z,76.7479
2023-04-15T04:05:36.572Z,76.4991
2023-04-15T04:06:37.109Z,76.5708
2023-04-15T04:07:37.652Z,76.8673
2023-04-15T04:08:38.283Z,76.9965
2023-04-15T04:09:38.809Z,77.1285
2023-04-15T04:10:39.402Z,76.8738
2023-04-15T04:11:40.262Z,76.9775
2023-04-15T04:12:40.769Z,77.0051
2023-04-15T04:13:41.394Z,77.2125
2023-04-15T04:14:41.934Z,76.8915
2023-04-15T04:15:42.480Z,76.6853
2023-04-15T04:16:44.886Z,76.6728
2023-04-15T04:17:45.406Z,76.4643
2023-04-15T04:18:45.984Z,76.4772
2023-04-15T04:19:46.554Z,75.8967
2023-04-15T04:20:47.102Z,76.0428
2023-04-15T04:21:47.872Z,76.5359
2023-04-15T04:22:48.427Z,76.3530
2023-04-15T04:23:49.017Z,76.4095
2023-04-15T04:24:49.538Z,76.1156
2023-04-15T04:25:50.076Z,75.6295
2023-04-15T04:26:50.609Z,75.4249
2023-04-15T04:27:51.172Z,75.6679
2023-04-15T04:28:51.918Z,76.0934
2023-04-15T04:29:52.478Z,76.6078
2023-04-15T04:30:52.997Z,76.1620
2023-04-15T04:31:53.630Z,76.5156
2023-04-15T04:32:54.191Z,76.0592
2023-04-15T04:33:54.718Z,75.7041
2023-04-15T04:34:55.246Z,75.2001
2023-04-15T04:35:55.778Z,75.7338
2023-04-15T04:36:56.353Z,75.9422
2023-04-15T04:37:56.907Z,75.3072
2023-04-15T04:38:57.441Z,74.6391
2023-04-15T04:39:57.957Z,74.2645
2023-04-15T04:40:58.463Z,74.5774
2023-04-15T04:41:59.244Z,74.4371
2023-04-15T04:42:59.807Z,74.0924
2023-04-15T04:44:00.353Z,74.0685
2023-04-15T04:45:00.892Z,73.8000
2023-04-15T04:46:01.481Z,74.0834
2023-04-15T04:47:02.072Z,74.2903
2023-04-15T04:48:02.759Z,74.1408
2023-04-15T04:49:03.770Z,73.5692
2023-04-15T04:50:04.359Z,74.3577
2023-04-15T04:51:04.910Z,74.4333
2023-04-15T04:52:05.444Z,74.2998
2023-04-15T04:53:05.974Z,74.3911
2023-04-15T04:54:06.787Z,73.9310
2023-04-15T04:55:07.337Z,73.6130
2023-04-15T04:56:07.872Z,73.4858
2023-04-15T04:57:08.423Z,73.0735
2023-04-15T04:58:09.008Z,73.7374
2023-04-15T04:59:09.557Z,73.8310
2023-04-15T05:00:10.142Z,73.1297
2023-04-15T05:01:10.781Z,72.5745
2023-04-15T05:02:11.341Z,72.4907
2023-04-15T05:03:12.148Z,72.8815
2023-04-15T05:04:13.182Z,73.4018
2023-04-15T05:05:13.768Z,73.4501
2023-04-15T05:06:14.320Z,73.5563
2023-04-15T05:07:14.898Z,73.6472
2023-04-15T05:08:15.507Z,73.8103
2023-04-15T05:09:16.378Z,73.9599
2023-04-15T05:10:16.957Z,73.9754
2023-04-15T05:11:17.467Z,73.9756
2023-04-15T05:12:17.988Z,74.1364
2023-04-15T05:13:18.545Z,74.3413
2023-04-15T05:14:19.138Z,74.3925
2023-04-15T05:15:19.679Z,74.5123
2023-04-15T05:16:20.295Z,74.3886
2023-04-15T05:17:20.903Z,74.1005
2023-04-15T05:18:21.447Z,73.9660
2023-04-15T05:19:22.012Z,73.4000
2023-04-15T05:20:22.547Z,73.5562
2023-04-15T05:21:23.079Z,74.0690
2023-04-15T05:22:23.634Z,74.1365
2023-04-15T05:23:24.517Z,74.0965
2023-04-15T05:24:25.066Z,74.0167
2023-04-15T05:25:25.584Z,73.9796
2023-04-15T05:26:26.143Z,73.8205
2023-04-15T05:27:26.725Z,74.0364
2023-04-15T05:28:27.271Z,73.9151
2023-04-15T05:29:27.817Z,73.9383
2023-04-15T05:30:28.348Z,73.4024
2023-04-15T05:31:29.209Z,73.3817
2023-04-15T05:32:29.840Z,73.6547
2023-04-15T05:33:30.416Z,73.7889
2023-04-15T05:34:31.035Z,74.1982
2023-04-15T05:35:31.603Z,74.3428
2023-04-15T05:36:32.189Z,73.7844
2023-04-15T05:37:32.764Z,73.9695
2023-04-15T05:38:33.556Z,72.9747
2023-04-15T05:39:34.163Z,72.9716
2023-04-15T05:40:34.755Z,72.5754
2023-04-15T05:41:35.336Z,72.9658
2023-04-15T05:42:35.899Z,73.2026
2023-04-15T05:43:36.521Z,73.2175
2023-04-15T05:44:37.153Z,72.7888
2023-04-15T05:45:37.729Z,72.6295
2023-04-15T05:46:38.583Z,72.7355
2023-04-15T05:47:39.259Z,72.8586
2023-04-15T05:48:39.895Z,72.8485
2023-04-15T05:49:40.492Z,72.1710
2023-04-15T05:50:41.071Z,71.9620
2023-04-15T05:51:41.733Z,72.1737
2023-04-15T05:52:42.277Z,71.5929
2023-04-15T05:53:42.851Z,71.1776
2023-04-15T05:54:43.438Z,71.3106
2023-04-15T05:55:44.040Z,72.0798
2023-04-15T05:56:44.617Z,72.2367
2023-04-15T05:57:45.227Z,71.8332
2023-04-15T05:58:46.017Z,71.4716
2023-04-15T05:59:46.562Z,71.9383
2023-04-15T06:00:47.149Z,71.0610
2023-04-15T06:01:47.981Z,71.7762
2023-04-15T06:02:48.661Z,71.8412
2023-04-15T06:03:49.445Z,72.4998
2023-04-15T06:04:50.186Z,72.3483
2023-04-15T06:05:50.688Z,72.6414
2023-04-15T06:06:51.256Z,72.6198
2023-04-15T06:07:51.823Z,72.4000
2023-04-15T06:08:52.458Z,72.3705
2023-04-15T06:09:53.040Z,71.8139
2023-04-15T06:10:53.622Z,71.4019
2023-04-15T06:11:54.310Z,71.0035
2023-04-15T06:12:54.838Z,70.5180
2023-04-15T06:13:55.414Z,69.8281
2023-04-15T06:14:56.022Z,69.1545
2023-04-15T06:15:56.605Z,69.5897
2023-04-15T06:16:57.247Z,70.7181
2023-04-15T06:17:57.830Z,68.8327
2023-04-15T06:18:58.436Z,69.3906
2023-04-15T06:19:59.016Z,69.1075
2023-04-15T06:20:59.622Z,70.3627
2023-04-15T06:22:00.228Z,70.1876
2023-04-15T06:23:00.823Z,69.9539
2023-04-15T06:24:01.473Z,69.5537
2023-04-15T06:25:02.116Z,69.5744
2023-04-15T06:26:02.712Z,68.4031
2023-04-15T06:27:03.312Z,68.4604
2023-04-15T06:28:03.898Z,68.0603
2023-04-15T06:29:04.483Z,68.0000
2023-04-15T06:30:05.088Z,68.1230
2023-04-15T06:31:07.269Z,67.3623
2023-04-15T06:32:07.827Z,67.6731
2023-04-15T06:33:08.467Z,67.2687
2023-04-15T06:34:09.105Z,66.5409
2023-04-15T06:35:09.698Z,66.3003
2023-04-15T06:36:10.355Z,66.0507
2023-04-15T06:37:10.904Z,65.9185
2023-04-15T06:38:11.503Z,65.9486
2023-04-15T06:39:12.079Z,65.8904
2023-04-15T06:40:12.675Z,65.8244
2023-04-15T06:41:13.256Z,66.6580
2023-04-15T06:42:13.848Z,66.6621
2023-04-15T06:43:14.477Z,65.3079
2023-04-15T06:44:15.080Z,65.4152
2023-04-15T06:45:15.701Z,65.5620
2023-04-15T06:46:16.368Z,66.1856
2023-04-15T06:47:17.017Z,66.4618
2023-04-15T06:48:17.629Z,66.5908
2023-04-15T06:49:18.237Z,66.5012
2023-04-15T06:50:18.866Z,66.6365
2023-04-15T06:51:19.457Z,66.4728
2023-04-15T06:52:20.074Z,66.9375
2023-04-15T06:53:20.624Z,68.3945
2023-04-15T06:54:21.234Z,67.0341
2023-04-15T06:55:21.828Z,66.8429
2023-04-15T06:56:22.408Z,67.3517
2023-04-15T06:57:23.017Z,67.7007
2023-04-15T06:58:23.571Z,67.4652
2023-04-15T06:59:24.145Z,68.2295
2023-04-15T07:00:24.779Z,67.4460
2023-04-15T07:01:25.390Z,66.7028
2023-04-15T07:02:26.127Z,67.9497
2023-04-15T07:03:26.731Z,67.7848
2023-04-15T07:04:27.335Z,67.7165
2023-04-15T07:05:27.985Z,67.6525
2023-04-15T07:06:28.625Z,66.6432
2023-04-15T07:07:29.191Z,66.6759
2023-04-15T07:08:30.025Z,67.3436
2023-04-15T07:09:30.595Z,66.4674
2023-04-15T07:10:31.190Z,65.7784
2023-04-15T07:11:31.789Z,67.3241
2023-04-15T07:12:32.365Z,66.8134
2023-04-15T07:13:32.936Z,66.3215
2023-04-15T07:14:33.520Z,65.7363
2023-04-15T07:15:34.123Z,65.7662
2023-04-15T07:16:34.770Z,65.5449
2023-04-15T07:17:35.411Z,66.6961
2023-04-15T07:18:35.993Z,67.5243
2023-04-15T07:19:36.590Z,68.3412
2023-04-15T07:20:37.232Z,68.0682
2023-04-15T07:21:38.928Z,67.7048
2023-04-15T07:22:40.522Z,67.7693
2023-04-15T07:23:41.347Z,67.5272
2023-04-15T07:24:41.922Z,68.6798
2023-04-15T07:25:42.541Z,68.6519
2023-04-15T07:26:43.105Z,68.0682
2023-04-15T07:27:43.691Z,68.3362
2023-04-15T07:28:44.307Z,68.1262
2023-04-15T07:29:44.902Z,68.7651
2023-04-15T07:30:45.499Z,69.0279
2023-04-15T07:31:46.119Z,70.1656
2023-04-15T07:32:46.758Z,70.9072
2023-04-15T07:33:47.303Z,69.5225
2023-04-15T07:34:47.908Z,70.9324
2023-04-15T07:35:48.530Z,71.6883
2023-04-15T07:36:49.116Z,72.3809
2023-04-15T07:37:49.912Z,71.2752
2023-04-15T07:38:50.495Z,71.0531
2023-04-15T07:39:51.124Z,70.8828
2023-04-15T07:40:51.865Z,73.3310
2023-04-15T07:41:52.438Z,74.8144
2023-04-15T07:42:53.009Z,74.5804
2023-04-15T07:43:53.685Z,74.9903
2023-04-15T07:44:54.259Z,74.7992
2023-04-15T07:45:55.114Z,74.8637
2023-04-15T07:46:55.659Z,73.7029
2023-04-15T07:47:56.381Z,74.4837
2023-04-15T07:48:56.986Z,73.3050
2023-04-15T07:49:57.616Z,72.8020
2023-04-15T07:50:58.226Z,73.0705
2023-04-15T07:51:58.826Z,74.5269
2023-04-15T07:52:59.665Z,75.0487
2023-04-15T07:54:00.241Z,74.1346
2023-04-15T07:55:00.874Z,72.5768
2023-04-15T07:56:01.733Z,72.6826
2023-04-15T07:57:02.330Z,73.1507
2023-04-15T07:58:03.041Z,72.3587
2023-04-15T07:59:03.805Z,71.8854
2023-04-15T08:00:04.566Z,70.9839
2023-04-15T08:01:05.171Z,71.1336
2023-04-15T08:02:05.932Z,72.6968
2023-04-15T08:03:06.573Z,71.9490
2023-04-15T08:04:07.377Z,73.2057
2023-04-15T08:05:07.982Z,74.1650
2023-04-15T08:06:08.577Z,74.8246
2023-04-15T08:07:09.157Z,74.5162
2023-04-15T08:08:09.751Z,73.5786
2023-04-15T08:09:10.357Z,73.5780
2023-04-15T08:10:11.112Z,72.7926
2023-04-15T08:11:11.921Z,73.4844
2023-04-15T08:12:12.505Z,72.5978
2023-04-15T08:13:13.106Z,71.3913
2023-04-15T08:14:13.689Z,71.8792
2023-04-15T08:15:14.296Z,71.7132
2023-04-15T08:16:14.866Z,70.7413
2023-04-15T08:17:15.627Z,69.4007
2023-04-15T08:18:16.277Z,70.2127
2023-04-15T08:19:16.872Z,69.5330
2023-04-15T08:20:17.503Z,71.3783
2023-04-15T08:21:18.165Z,72.7871
2023-04-15T08:22:20.105Z,71.9771
2023-04-15T08:23:22.175Z,72.5715
2023-04-15T08:24:22.818Z,72.0701
2023-04-15T08:25:23.430Z,72.1490
2023-04-15T08:26:24.022Z,71.9668
2023-04-15T08:27:24.608Z,71.7289
2023-04-15T08:28:25.199Z,71.2495
2023-04-15T08:29:25.838Z,69.5269
2023-04-15T08:30:26.666Z,67.6206
2023-04-15T08:31:27.403Z,66.4950
2023-04-15T08:32:27.985Z,67.1331
2023-04-15T08:33:28.904Z,67.3928
2023-04-15T08:34:29.484Z,67.7087
2023-04-15T08:35:30.158Z,67.1241
2023-04-15T08:36:30.759Z,66.3273
2023-04-15T08:37:31.551Z,66.6265
2023-04-15T08:38:32.167Z,67.0059
2023-04-15T08:39:32.835Z,66.3572
2023-04-15T08:40:33.689Z,68.5887
2023-04-15T08:41:34.275Z,69.6540
2023-04-15T08:42:34.901Z,70.2493
2023-04-15T08:43:35.526Z,70.2183
2023-04-15T08:44:36.102Z,70.1254
2023-04-15T08:45:36.692Z,70.0885
2023-04-15T08:46:37.371Z,69.3343
2023-04-15T08:47:38.204Z,67.4975
2023-04-15T08:48:38.817Z,66.9950
2023-04-15T08:49:39.481Z,66.1431
2023-04-15T08:50:40.124Z,66.8390
2023-04-15T08:51:40.731Z,65.9089
2023-04-15T08:52:41.555Z,66.4664
2023-04-15T08:53:42.179Z,66.6307
2023-04-15T08:54:42.779Z,65.5493
2023-04-15T08:55:43.567Z,64.0584
2023-04-15T08:56:44.379Z,64.7094
2023-04-15T08:57:44.953Z,65.2696
2023-04-15T08:58:45.508Z,62.9229
2023-04-15T08:59:46.086Z,63.9904
2023-04-15T09:00:46.760Z,63.1279
2023-04-15T09:01:47.445Z,63.5698
2023-04-15T09:02:48.152Z,64.2904
2023-04-15T09:03:48.852Z,67.6742
2023-04-15T09:04:49.537Z,69.5784
2023-04-15T09:05:51.461Z,70.6673
2023-04-15T09:06:50.227Z,70.7980
2023-04-15T09:07:50.858Z,69.9644
2023-04-15T09:08:51.385Z,71.0337
2023-04-15T09:09:51.949Z,70.8055
2023-04-15T09:10:52.559Z,71.8546
2023-04-15T09:11:53.158Z,73.0266
2023-04-15T09:12:53.769Z,73.0757
2023-04-15T09:13:54.357Z,72.8533
2023-04-15T09:14:54.932Z,71.7395
2023-04-15T09:15:55.497Z,72.8039
2023-04-15T09:16:56.106Z,73.5192
2023-04-15T09:17:56.715Z,73.1331
2023-04-15T09:18:57.326Z,73.8966
2023-04-15T09:19:57.908Z,74.0515
2023-04-15T09:20:58.490Z,73.4101
2023-04-15T09:21:59.414Z,73.4400
2023-04-15T09:23:00.440Z,72.9710
2023-04-15T09:24:01.403Z,71.3687
2023-04-15T09:25:02.437Z,71.8028
2023-04-15T09:26:03.052Z,72.3667
2023-04-15T09:27:03.680Z,70.9169
2023-04-15T09:28:04.494Z,71.3158
2023-04-15T09:29:05.101Z,69.7873
2023-04-15T09:30:05.668Z,69.7108
2023-04-15T09:31:06.283Z,70.7985
2023-04-15T09:32:06.869Z,70.5685
2023-04-15T09:33:07.511Z,69.1807
2023-04-15T09:34:08.056Z,67.6614
2023-04-15T09:35:08.893Z,67.3086
2023-04-15T09:36:09.587Z,66.5582
2023-04-15T09:37:10.543Z,65.8300
2023-04-15T09:38:11.113Z,65.2584
2023-04-15T09:39:11.680Z,68.0619
2023-04-15T09:40:12.269Z,68.6506
2023-04-15T09:41:12.842Z,67.9075
2023-04-15T09:42:13.427Z,67.3221
2023-04-15T09:43:14.032Z,64.7834
2023-04-15T09:44:14.582Z,65.6916
2023-04-15T09:45:15.200Z,65.8386
2023-04-15T09:46:15.793Z,65.8236
2023-04-15T09:47:16.672Z,66.1654
2023-04-15T09:48:17.299Z,64.8201
2023-04-15T09:49:17.973Z,66.4211
2023-04-15T09:50:18.551Z,66.3938
2023-04-15T09:51:19.213Z,66.0091
2023-04-15T09:52:19.794Z,65.5651
2023-04-15T09:53:20.387Z,64.7982
2023-04-15T09:54:20.974Z,63.9305
2023-04-15T09:55:21.552Z,63.6262
2023-04-15T09:56:22.138Z,60.9840
2023-04-15T09:57:22.693Z,62.1867
2023-04-15T09:58:23.278Z,63.9583
2023-04-15T09:59:23.844Z,61.1739
2023-04-15T10:00:24.985Z,59.5734
2023-04-15T10:01:25.565Z,61.1394
2023-04-15T10:02:26.287Z,63.0637
2023-04-15T10:03:27.000Z,60.0586
2023-04-15T10:04:27.958Z,60.6753
2023-04-15T10:05:29.775Z,62.1855
2023-04-15T10:06:30.777Z,64.3870
2023-04-15T10:07:31.349Z,66.4904
2023-04-15T10:08:31.958Z,64.8993
2023-04-15T10:09:32.553Z,63.7302
2023-04-15T10:10:33.133Z,64.4722
2023-04-15T10:11:33.692Z,64.3614
2023-04-15T10:12:34.315Z,65.3772
2023-04-15T10:13:34.877Z,66.6537
2023-04-15T10:14:35.506Z,65.5817
2023-04-15T10:15:36.090Z,64.9807
2023-04-15T10:16:36.634Z,65.2190
2023-04-15T10:17:37.461Z,64.7212
2023-04-15T10:18:38.150Z,65.5406
2023-04-15T10:19:38.771Z,65.7321
2023-04-15T10:20:39.365Z,65.5875
2023-04-15T10:21:39.949Z,66.6333
2023-04-15T10:22:40.757Z,66.8275
2023-04-15T10:23:41.280Z,67.1432
2023-04-15T10:25:44.935Z,68.0395
2023-04-15T10:26:45.556Z,67.8852
2023-04-15T10:27:46.122Z,67.4949
2023-04-15T10:28:46.710Z,66.8716
2023-04-15T10:29:47.299Z,67.9971
2023-04-15T10:30:47.880Z,69.3451
2023-04-15T10:31:48.576Z,70.7929
2023-04-15T10:32:49.169Z,68.9572
2023-04-15T10:33:49.733Z,68.4924
2023-04-15T10:34:51.071Z,68.3371
2023-04-15T10:35:52.414Z,69.4312
2023-04-15T10:36:52.978Z,69.6618
2023-04-15T10:37:53.552Z,69.2030
2023-04-15T10:38:54.132Z,69.6209
2023-04-15T10:39:54.910Z,70.1213
2023-04-15T10:40:55.514Z,69.7807
2023-04-15T10:41:56.167Z,68.9801
2023-04-15T10:42:56.725Z,68.5547
2023-04-15T10:43:57.295Z,68.5918
2023-04-15T10:44:57.868Z,68.5209
2023-04-15T10:45:58.445Z,68.8582
2023-04-15T10:46:59.277Z,69.0987
2023-04-15T10:48:01.596Z,67.3715
2023-04-15T10:49:00.359Z,67.2308
2023-04-15T10:50:00.985Z,72.0529
2023-04-15T10:51:01.591Z,72.8797
2023-04-15T10:52:02.167Z,74.9757
2023-04-15T10:53:02.726Z,74.9625
2023-04-15T10:54:03.536Z,75.3176
2023-04-15T10:55:04.114Z,75.2988
2023-04-15T10:56:04.682Z,74.2052
2023-04-15T10:57:05.250Z,74.7145
2023-04-15T10:58:05.866Z,74.6551
2023-04-15T10:59:06.431Z,73.4500
2023-04-15T11:00:07.001Z,72.2232
2023-04-15T11:01:07.616Z,70.6992
2023-04-15T11:02:08.479Z,71.1779
2023-04-15T11:03:09.518Z,71.7666
2023-04-15T11:04:10.543Z,72.5342
2023-04-15T11:05:11.097Z,74.2082
2023-04-15T11:06:11.669Z,73.7332
2023-04-15T11:07:12.257Z,72.5694
2023-04-15T11:08:12.868Z,71.6027
2023-04-15T11:09:13.690Z,72.2971
2023-04-15T11:10:14.279Z,71.5665
2023-04-15T11:11:14.831Z,69.2584
2023-04-15T11:12:15.445Z,69.8370
2023-04-15T11:13:16.062Z,70.5207
2023-04-15T11:14:16.632Z,71.3470
2023-04-15T11:15:17.199Z,70.3026
2023-04-15T11:16:17.820Z,69.6507
2023-04-15T11:17:18.698Z,69.4916
2023-04-15T11:18:19.297Z,70.6426
2023-04-15T11:19:19.908Z,69.6561
2023-04-15T11:20:20.499Z,72.8923
2023-04-15T11:21:21.088Z,73.4454
2023-04-15T11:22:21.666Z,74.0311
2023-04-15T11:23:22.534Z,73.4092
2023-04-15T11:24:23.318Z,73.6963
2023-04-15T11:25:24.043Z,73.1295
2023-04-15T11:26:24.697Z,74.6215
2023-04-15T11:27:25.293Z,75.9195
2023-04-15T11:28:25.856Z,75.4329
2023-04-15T11:29:26.465Z,75.8828
2023-04-15T11:30:27.080Z,75.9123
2023-04-15T11:31:27.701Z,74.7599
2023-04-15T11:32:28.282Z,73.9742
2023-04-15T11:33:28.911Z,75.5095
2023-04-15T11:34:29.493Z,76.2432
2023-04-15T11:35:30.084Z,76.1174
2023-04-15T11:36:30.645Z,76.2105
2023-04-15T11:37:31.252Z,75.7031
2023-04-15T11:38:31.834Z,75.7994
2023-04-15T11:39:32.429Z,75.3994
2023-04-15T11:40:32.980Z,75.8627
2023-04-15T11:41:33.579Z,75.4405
2023-04-15T11:42:48.741Z,75.4450
2023-04-15T11:43:37.148Z,75.6456
2023-04-15T11:44:37.735Z,75.4937
2023-04-15T11:45:38.340Z,75.5420
2023-04-15T11:46:38.912Z,75.3685
2023-04-15T11:47:39.509Z,75.9800
2023-04-15T11:48:40.113Z,76.6331
2023-04-15T11:49:40.953Z,76.5063
2023-04-15T11:50:41.559Z,76.8893
2023-04-15T11:51:42.099Z,76.7487
2023-04-15T11:52:42.656Z,77.0330
2023-04-15T11:53:43.281Z,77.3473
2023-04-15T11:54:43.873Z,75.5374
2023-04-15T11:55:44.683Z,73.5753
2023-04-15T11:56:45.244Z,72.3068
2023-04-15T11:57:45.839Z,70.6972
2023-04-15T11:58:46.572Z,72.0124
2023-04-15T11:59:47.220Z,73.8861
2023-04-15T12:00:47.878Z,73.4756
2023-04-15T12:01:48.711Z,74.0527
2023-04-15T12:02:49.360Z,74.2396
2023-04-15T12:03:50.545Z,74.4187
2023-04-15T12:04:51.360Z,72.8137
2023-04-15T12:05:51.976Z,72.6428
2023-04-15T12:06:52.585Z,72.1818
2023-04-15T12:07:53.210Z,71.5198
2023-04-15T12:08:53.816Z,70.9112
2023-04-15T12:09:54.443Z,68.7036
2023-04-15T12:10:55.070Z,67.2959
2023-04-15T12:11:55.664Z,67.5839
2023-04-15T12:12:56.284Z,71.0650
2023-04-15T12:13:56.885Z,72.8914
2023-04-15T12:14:57.541Z,72.4887
2023-04-15T12:15:58.186Z,72.4244
2023-04-15T12:16:58.813Z,72.1388
2023-04-15T12:17:59.743Z,70.9324
2023-04-15T12:19:02.342Z,72.1152
2023-04-15T12:20:02.993Z,70.8399
2023-04-15T12:21:03.587Z,71.1608
2023-04-15T12:22:04.212Z,68.5038